createdAt,value
2022-09-04T00:00:17.647Z,39.53
2022-09-04T00:01:17.655Z,39.53
2022-09-04T00:02:17.653Z,39.53
2022-09-04T00:03:17.656Z,39.53
2022-09-04T00:04:17.742Z,39.53
2022-09-04T00:05:20.303Z,39.53
2022-09-04T00:06:17.659Z,39.53
2022-09-04T00:07:17.656Z,39.53
2022-09-04T00:08:17.674Z,39.53
2022-09-04T00:09:17.659Z,39.53
2022-09-04T00:10:17.663Z,39.53
2022-09-04T00:11:17.664Z,39.53
2022-09-04T00:12:17.660Z,39.53
2022-09-04T00:13:17.665Z,39.53
2022-09-04T00:14:17.670Z,39.53
2022-09-04T00:15:17.665Z,39.53
2022-09-04T00:16:17.691Z,39.53
2022-09-04T00:17:17.670Z,39.53
2022-09-04T00:18:17.700Z,39.53
2022-09-04T00:19:17.670Z,39.53
2022-09-04T00:20:17.679Z,39.53
2022-09-04T00:21:17.669Z,39.53
2022-09-04T00:22:17.673Z,39.53
2022-09-04T00:23:17.673Z,39.53
2022-09-04T00:24:17.684Z,39.53
2022-09-04T00:25:17.696Z,39.53
2022-09-04T00:26:17.685Z,39.53
2022-09-04T00:27:17.678Z,39.53
2022-09-04T00:28:17.737Z,39.53
2022-09-04T00:29:17.687Z,39.53
2022-09-04T00:30:17.678Z,39.53
2022-09-04T00:31:17.707Z,39.53
2022-09-04T00:32:17.687Z,39.53
2022-09-04T00:33:17.683Z,39.53
2022-09-04T00:34:17.688Z,39.53
2022-09-04T00:35:17.689Z,39.53
2022-09-04T00:36:17.690Z,39.53
2022-09-04T00:37:17.695Z,39.53
2022-09-04T00:38:17.801Z,39.53
2022-09-04T00:39:17.686Z,39.53
2022-09-04T00:40:17.691Z,39.53
2022-09-04T00:41:17.693Z,39.53
2022-09-04T00:42:17.690Z,39.53
2022-09-04T00:43:17.700Z,39.53
2022-09-04T00:44:17.694Z,39.53
2022-09-04T00:45:17.697Z,39.53
2022-09-04T00:46:17.762Z,39.53
2022-09-04T00:47:17.699Z,39.53
2022-09-04T00:48:17.768Z,39.53
2022-09-04T00:49:17.701Z,39.53
2022-09-04T00:50:17.704Z,39.53
2022-09-04T00:51:17.717Z,39.53
2022-09-04T00:52:17.702Z,39.53
2022-09-04T00:53:17.710Z,39.53
2022-09-04T00:54:17.708Z,39.53
2022-09-04T00:55:17.720Z,39.53
2022-09-04T00:56:17.715Z,39.53
2022-09-04T00:57:17.713Z,39.53
2022-09-04T00:58:17.771Z,39.53
2022-09-04T00:59:17.710Z,39.53
2022-09-04T01:00:17.717Z,39.53
2022-09-04T01:01:17.770Z,39.53
2022-09-04T01:02:17.780Z,39.53
2022-09-04T01:03:17.707Z,39.53
2022-09-04T01:04:17.712Z,39.53
2022-09-04T01:05:19.702Z,39.53
2022-09-04T01:06:17.716Z,39.53
2022-09-04T01:07:17.717Z,39.53
2022-09-04T01:08:17.729Z,39.53
2022-09-04T01:09:17.717Z,39.53
2022-09-04T01:10:17.716Z,39.53
2022-09-04T01:11:17.719Z,39.53
2022-09-04T01:12:17.724Z,39.53
2022-09-04T01:13:17.717Z,39.53
2022-09-04T01:14:17.714Z,39.53
2022-09-04T01:15:17.724Z,39.53
2022-09-04T01:16:17.741Z,39.53
2022-09-04T01:17:17.724Z,39.53
2022-09-04T01:18:17.769Z,39.53
2022-09-04T01:19:17.722Z,39.53
2022-09-04T01:20:17.729Z,39.53
2022-09-04T01:21:17.726Z,39.53
2022-09-04T01:22:17.721Z,39.53
2022-09-04T01:23:17.728Z,39.53
2022-09-04T01:24:17.717Z,39.53
2022-09-04T01:25:17.735Z,39.53
2022-09-04T01:26:17.729Z,39.53
2022-09-04T01:27:17.729Z,39.53
2022-09-04T01:28:17.764Z,39.53
2022-09-04T01:29:17.731Z,39.53
2022-09-04T01:30:17.722Z,39.53
2022-09-04T01:31:17.759Z,39.53
2022-09-04T01:32:17.725Z,39.53
2022-09-04T01:33:17.734Z,39.53
2022-09-04T01:34:17.722Z,39.53
2022-09-04T01:35:17.736Z,39.53
2022-09-04T01:36:17.727Z,39.53
2022-09-04T01:37:17.733Z,39.53
2022-09-04T01:38:17.752Z,39.53
2022-09-04T01:39:17.733Z,39.53
2022-09-04T01:40:17.735Z,39.53
2022-09-04T01:41:17.734Z,39.53
2022-09-04T01:42:17.728Z,105.88
2022-09-04T01:43:17.735Z,73.41
2022-09-04T01:44:17.728Z,111.53
2022-09-04T01:45:17.736Z,90.35
2022-09-04T01:46:17.732Z,66.35
2022-09-04T01:47:17.732Z,66.35
2022-09-04T01:48:17.841Z,66.35
2022-09-04T01:49:17.735Z,66.35
2022-09-04T01:50:17.738Z,66.35
2022-09-04T01:51:17.745Z,66.35
2022-09-04T01:52:17.741Z,66.35
2022-09-04T01:53:17.748Z,66.35
2022-09-04T01:54:17.745Z,66.35
2022-09-04T01:55:17.751Z,66.35
2022-09-04T01:56:17.752Z,125.65
2022-09-04T01:57:17.745Z,121.41
2022-09-04T01:58:17.793Z,93.18
2022-09-04T01:59:17.756Z,86.12
2022-09-04T02:00:17.759Z,93.18
2022-09-04T02:01:21.103Z,93.18
2022-09-04T02:02:17.828Z,93.18
2022-09-04T02:03:17.759Z,93.18
2022-09-04T02:04:17.750Z,93.18
2022-09-04T02:05:17.754Z,93.18
2022-09-04T02:06:17.760Z,93.18
2022-09-04T02:07:17.761Z,93.18
2022-09-04T02:08:17.808Z,93.18
2022-09-04T02:09:17.766Z,93.18
2022-09-04T02:10:17.765Z,93.18
2022-09-04T02:11:17.761Z,93.18
2022-09-04T02:12:19.030Z,93.18
2022-09-04T02:13:17.771Z,93.18
2022-09-04T02:14:17.773Z,93.18
2022-09-04T02:15:17.779Z,93.18
2022-09-04T02:16:17.825Z,93.18
2022-09-04T02:17:17.783Z,93.18
2022-09-04T02:18:17.830Z,93.18
2022-09-04T02:19:17.789Z,107.29
2022-09-04T02:20:17.783Z,84.71
2022-09-04T02:21:17.791Z,84.71
2022-09-04T02:22:17.800Z,84.71
2022-09-04T02:23:17.796Z,59.29
2022-09-04T02:24:17.796Z,59.29
2022-09-04T02:25:17.800Z,59.29
2022-09-04T02:26:17.812Z,59.29
2022-09-04T02:27:17.796Z,59.29
2022-09-04T02:28:17.802Z,59.29
2022-09-04T02:29:17.804Z,59.29
2022-09-04T02:30:17.804Z,59.29
2022-09-04T02:31:17.856Z,59.29
2022-09-04T02:32:17.805Z,59.29
2022-09-04T02:33:17.817Z,59.29
2022-09-04T02:34:17.805Z,59.29
2022-09-04T02:35:17.808Z,59.29
2022-09-04T02:36:17.807Z,59.29
2022-09-04T02:37:17.815Z,59.29
2022-09-04T02:38:17.886Z,59.29
2022-09-04T02:39:17.823Z,59.29
2022-09-04T02:40:17.821Z,59.29
2022-09-04T02:41:17.821Z,59.29
2022-09-04T02:42:17.820Z,59.29
2022-09-04T02:43:17.824Z,59.29
2022-09-04T02:44:17.835Z,59.29
2022-09-04T02:45:17.828Z,59.29
2022-09-04T02:46:17.867Z,59.29
2022-09-04T02:47:17.836Z,59.29
2022-09-04T02:48:17.876Z,59.29
2022-09-04T02:49:17.830Z,59.29
2022-09-04T02:50:17.839Z,59.29
2022-09-04T02:51:17.838Z,59.29
2022-09-04T02:52:17.836Z,59.29
2022-09-04T02:53:18.448Z,59.29
2022-09-04T02:54:17.839Z,59.29
2022-09-04T02:55:17.889Z,59.29
2022-09-04T02:56:17.838Z,59.29
2022-09-04T02:57:17.845Z,59.29
2022-09-04T02:58:17.848Z,59.29
2022-09-04T02:59:17.848Z,94.59
2022-09-04T03:00:18.380Z,88.94
2022-09-04T03:01:17.879Z,88.94
2022-09-04T03:02:17.907Z,88.94
2022-09-04T03:03:17.857Z,88.94
2022-09-04T03:04:17.862Z,88.94
2022-09-04T03:05:17.862Z,88.94
2022-09-04T03:06:17.859Z,88.94
2022-09-04T03:07:17.866Z,88.94
2022-09-04T03:08:17.898Z,88.94
2022-09-04T03:09:17.862Z,88.94
2022-09-04T03:10:17.868Z,60.71
2022-09-04T03:11:17.868Z,60.71
2022-09-04T03:12:17.865Z,60.71
2022-09-04T03:13:17.866Z,60.71
2022-09-04T03:14:17.885Z,60.71
2022-09-04T03:15:17.876Z,60.71
2022-09-04T03:16:17.920Z,60.71
2022-09-04T03:17:17.876Z,60.71
2022-09-04T03:18:17.929Z,60.71
2022-09-04T03:19:17.874Z,60.71
2022-09-04T03:20:17.874Z,60.71
2022-09-04T03:21:17.881Z,60.71
2022-09-04T03:22:17.876Z,60.71
2022-09-04T03:23:17.873Z,60.71
2022-09-04T03:24:17.881Z,60.71
2022-09-04T03:25:17.888Z,60.71
2022-09-04T03:26:17.891Z,60.71
2022-09-04T03:27:17.892Z,60.71
2022-09-04T03:28:17.950Z,60.71
2022-09-04T03:29:17.890Z,60.71
2022-09-04T03:30:17.926Z,60.71
2022-09-04T03:31:17.953Z,60.71
2022-09-04T03:32:17.901Z,60.71
2022-09-04T03:33:17.902Z,60.71
2022-09-04T03:34:17.902Z,60.71
2022-09-04T03:35:17.897Z,60.71
2022-09-04T03:36:17.897Z,60.71
2022-09-04T03:37:17.905Z,60.71
2022-09-04T03:38:17.903Z,60.71
2022-09-04T03:39:17.897Z,60.71
2022-09-04T03:40:17.903Z,60.71
2022-09-04T03:41:17.912Z,60.71
2022-09-04T03:42:17.904Z,60.71
2022-09-04T03:43:17.909Z,60.71
2022-09-04T03:44:17.912Z,86.12
2022-09-04T03:45:17.912Z,131.29
2022-09-04T03:46:17.932Z,131.29
2022-09-04T03:47:17.900Z,131.29
2022-09-04T03:48:17.917Z,112.94
2022-09-04T03:49:17.915Z,121.41
2022-09-04T03:50:17.914Z,121.41
2022-09-04T03:51:17.913Z,121.41
2022-09-04T03:52:17.922Z,121.41
2022-09-04T03:53:17.920Z,121.41
2022-09-04T03:54:17.922Z,121.41
2022-09-04T03:55:17.923Z,121.41
2022-09-04T03:56:17.916Z,121.41
2022-09-04T03:57:17.916Z,121.41
2022-09-04T03:58:17.952Z,121.41
2022-09-04T03:59:17.929Z,105.88
2022-09-04T04:00:17.931Z,125.65
2022-09-04T04:01:20.570Z,138.35
2022-09-04T04:02:17.931Z,132.71
2022-09-04T04:03:18.002Z,148.24
2022-09-04T04:04:17.934Z,127.06
2022-09-04T04:05:17.942Z,129.88
2022-09-04T04:06:17.920Z,88.94
2022-09-04T04:07:17.937Z,110.12
2022-09-04T04:08:17.942Z,97.41
2022-09-04T04:09:17.926Z,73.41
2022-09-04T04:10:17.928Z,73.41
2022-09-04T04:11:17.937Z,86.12
2022-09-04T04:12:17.933Z,94.59
2022-09-04T04:13:17.938Z,80.47
2022-09-04T04:14:17.925Z,84.71
2022-09-04T04:15:17.933Z,125.65
2022-09-04T04:16:17.986Z,107.29
2022-09-04T04:17:20.493Z,115.76
2022-09-04T04:18:17.990Z,87.53
2022-09-04T04:19:17.938Z,87.53
2022-09-04T04:20:17.949Z,90.35
2022-09-04T04:21:17.948Z,105.88
2022-09-04T04:22:17.942Z,131.29
2022-09-04T04:23:17.950Z,104.47
2022-09-04T04:24:17.950Z,94.59
2022-09-04T04:25:17.947Z,111.53
2022-09-04T04:26:17.942Z,94.59
2022-09-04T04:27:17.949Z,98.82
2022-09-04T04:28:17.971Z,69.18
2022-09-04T04:29:17.954Z,88.94
2022-09-04T04:30:17.949Z,105.88
2022-09-04T04:31:17.999Z,70.59
2022-09-04T04:32:17.955Z,70.59
2022-09-04T04:33:17.955Z,70.59
2022-09-04T04:34:17.958Z,70.59
2022-09-04T04:35:17.966Z,128.47
2022-09-04T04:36:17.958Z,94.59
2022-09-04T04:37:17.960Z,88.94
2022-09-04T04:38:17.970Z,141.18
2022-09-04T04:39:17.960Z,132.71
2022-09-04T04:40:17.978Z,149.65
2022-09-04T04:41:17.962Z,149.65
2022-09-04T04:42:18.266Z,149.65
2022-09-04T04:43:17.962Z,149.65
2022-09-04T04:44:17.972Z,149.65
2022-09-04T04:45:17.963Z,149.65
2022-09-04T04:46:18.008Z,149.65
2022-09-04T04:47:17.975Z,149.65
2022-09-04T04:48:18.008Z,149.65
2022-09-04T04:49:17.975Z,83.29
2022-09-04T04:50:17.988Z,110.12
2022-09-04T04:51:17.985Z,115.76
2022-09-04T04:52:17.975Z,70.59
2022-09-04T04:53:17.982Z,97.41
2022-09-04T04:54:17.983Z,96
2022-09-04T04:55:17.978Z,91.76
2022-09-04T04:56:17.989Z,94.59
2022-09-04T04:57:17.981Z,90.35
2022-09-04T04:58:18.055Z,91.76
2022-09-04T04:59:17.983Z,111.53
2022-09-04T05:00:17.983Z,111.53
2022-09-04T05:01:18.041Z,111.53
2022-09-04T05:02:18.066Z,111.53
2022-09-04T05:03:17.982Z,111.53
2022-09-04T05:04:17.989Z,111.53
2022-09-04T05:05:17.984Z,111.53
2022-09-04T05:06:17.987Z,111.53
2022-09-04T05:07:17.988Z,111.53
2022-09-04T05:08:17.988Z,111.53
2022-09-04T05:09:17.993Z,111.53
2022-09-04T05:10:17.999Z,111.53
2022-09-04T05:11:17.998Z,111.53
2022-09-04T05:12:17.996Z,111.53
2022-09-04T05:13:17.995Z,111.53
2022-09-04T05:14:17.998Z,111.53
2022-09-04T05:15:18.009Z,111.53
2022-09-04T05:16:18.930Z,111.53
2022-09-04T05:17:18.000Z,111.53
2022-09-04T05:18:18.021Z,111.53
2022-09-04T05:19:17.992Z,111.53
2022-09-04T05:20:17.997Z,111.53
2022-09-04T05:21:18.003Z,111.53
2022-09-04T05:22:17.994Z,111.53
2022-09-04T05:23:18.013Z,111.53
2022-09-04T05:24:18.002Z,111.53
2022-09-04T05:25:18.008Z,111.53
2022-09-04T05:26:17.999Z,111.53
2022-09-04T05:27:18.009Z,111.53
2022-09-04T05:28:18.031Z,111.53
2022-09-04T05:29:18.006Z,179.29
2022-09-04T05:30:18.003Z,149.65
2022-09-04T05:31:18.032Z,149.65
2022-09-04T05:32:18.015Z,149.65
2022-09-04T05:33:18.020Z,149.65
2022-09-04T05:34:18.014Z,136.94
2022-09-04T05:35:18.016Z,125.65
2022-09-04T05:36:18.017Z,124.24
2022-09-04T05:37:18.010Z,125.65
2022-09-04T05:38:18.112Z,122.82
2022-09-04T05:39:18.019Z,91.76
2022-09-04T05:40:18.017Z,135.53
2022-09-04T05:41:18.019Z,83.29
2022-09-04T05:42:18.015Z,131.29
2022-09-04T05:43:18.013Z,87.53
2022-09-04T05:44:18.018Z,135.53
2022-09-04T05:45:18.015Z,129.88
2022-09-04T05:46:18.066Z,127.06
2022-09-04T05:47:18.022Z,105.88
2022-09-04T05:48:18.099Z,86.12
2022-09-04T05:49:18.005Z,179.29
2022-09-04T05:50:18.017Z,63.53
2022-09-04T05:51:18.019Z,84.71
2022-09-04T05:52:18.023Z,110.12
2022-09-04T05:53:18.017Z,129.88
2022-09-04T05:54:18.014Z,141.18
2022-09-04T05:55:18.018Z,144
2022-09-04T05:56:18.012Z,144
2022-09-04T05:57:18.020Z,122.82
2022-09-04T05:58:18.065Z,124.24
2022-09-04T05:59:18.020Z,91.76
2022-09-04T06:00:18.019Z,81.88
2022-09-04T06:01:18.024Z,81.88
2022-09-04T06:02:18.066Z,81.88
2022-09-04T06:03:18.108Z,81.88
2022-09-04T06:04:18.013Z,81.88
2022-09-04T06:05:18.025Z,81.88
2022-09-04T06:06:18.035Z,81.88
2022-09-04T06:07:18.020Z,81.88
2022-09-04T06:08:18.068Z,81.88
2022-09-04T06:09:18.029Z,81.88
2022-09-04T06:10:18.034Z,81.88
2022-09-04T06:11:18.025Z,81.88
2022-09-04T06:12:19.488Z,81.88
2022-09-04T06:13:18.043Z,81.88
2022-09-04T06:14:18.031Z,81.88
2022-09-04T06:15:18.031Z,81.88
2022-09-04T06:16:18.061Z,81.88
2022-09-04T06:17:18.036Z,81.88
2022-09-04T06:18:18.127Z,81.88
2022-09-04T06:19:18.026Z,81.88
2022-09-04T06:20:18.033Z,81.88
2022-09-04T06:21:18.037Z,81.88
2022-09-04T06:22:18.036Z,81.88
2022-09-04T06:23:18.039Z,81.88
2022-09-04T06:24:18.068Z,81.88
2022-09-04T06:25:18.039Z,81.88
2022-09-04T06:26:18.043Z,141.18
2022-09-04T06:27:18.047Z,153.88
2022-09-04T06:28:18.123Z,104.47
2022-09-04T06:29:18.050Z,76.24
2022-09-04T06:30:18.053Z,168
2022-09-04T06:31:18.086Z,187.76
2022-09-04T06:32:18.057Z,187.76
2022-09-04T06:33:18.051Z,187.76
2022-09-04T06:34:21.676Z,187.76
2022-09-04T06:35:18.054Z,187.76
2022-09-04T06:36:18.059Z,187.76
2022-09-04T06:37:18.059Z,187.76
2022-09-04T06:38:18.203Z,187.76
2022-09-04T06:39:18.057Z,187.76
2022-09-04T06:40:18.062Z,187.76
2022-09-04T06:41:18.064Z,156.71
2022-09-04T06:42:18.072Z,144
2022-09-04T06:43:18.079Z,144
2022-09-04T06:44:18.082Z,129.88
2022-09-04T06:45:18.079Z,105.88
2022-09-04T06:46:18.112Z,105.88
2022-09-04T06:47:18.074Z,105.88
2022-09-04T06:48:18.116Z,105.88
2022-09-04T06:49:18.095Z,105.88
2022-09-04T06:50:18.088Z,105.88
2022-09-04T06:51:18.081Z,146.82
2022-09-04T06:52:18.092Z,131.29
2022-09-04T06:53:18.090Z,131.29
2022-09-04T06:54:18.093Z,131.29
2022-09-04T06:55:18.092Z,131.29
2022-09-04T06:56:18.095Z,131.29
2022-09-04T06:57:18.095Z,131.29
2022-09-04T06:58:18.118Z,131.29
2022-09-04T06:59:18.100Z,131.29
2022-09-04T07:00:18.103Z,131.29
2022-09-04T07:01:18.182Z,131.29
2022-09-04T07:02:18.143Z,131.29
2022-09-04T07:03:18.108Z,131.29
2022-09-04T07:04:18.107Z,131.29
2022-09-04T07:05:18.107Z,131.29
2022-09-04T07:06:18.110Z,131.29
2022-09-04T07:07:18.110Z,131.29
2022-09-04T07:08:18.187Z,131.29
2022-09-04T07:09:18.115Z,131.29
2022-09-04T07:10:18.117Z,131.29
2022-09-04T07:11:18.109Z,131.29
2022-09-04T07:12:18.125Z,131.29
2022-09-04T07:13:18.121Z,131.29
2022-09-04T07:14:18.122Z,131.29
2022-09-04T07:15:18.124Z,131.29
2022-09-04T07:16:18.223Z,131.29
2022-09-04T07:17:18.126Z,131.29
2022-09-04T07:18:18.192Z,170.82
2022-09-04T07:19:18.124Z,203.29
2022-09-04T07:20:18.128Z,162.35
2022-09-04T07:21:18.135Z,162.35
2022-09-04T07:22:18.128Z,162.35
2022-09-04T07:23:18.137Z,162.35
2022-09-04T07:24:18.128Z,162.35
2022-09-04T07:25:18.137Z,162.35
2022-09-04T07:26:18.135Z,162.35
2022-09-04T07:27:18.137Z,162.35
2022-09-04T07:28:18.183Z,162.35
2022-09-04T07:29:20.564Z,162.35
2022-09-04T07:30:18.147Z,162.35
2022-09-04T07:31:18.248Z,162.35
2022-09-04T07:32:18.148Z,162.35
2022-09-04T07:33:18.145Z,162.35
2022-09-04T07:34:18.146Z,162.35
2022-09-04T07:35:18.145Z,162.35
2022-09-04T07:36:18.148Z,162.35
2022-09-04T07:37:18.164Z,162.35
2022-09-04T07:38:18.236Z,162.35
2022-09-04T07:39:18.160Z,162.35
2022-09-04T07:40:18.160Z,162.35
2022-09-04T07:41:18.154Z,162.35
2022-09-04T07:42:18.150Z,162.35
2022-09-04T07:43:18.158Z,162.35
2022-09-04T07:44:18.168Z,162.35
2022-09-04T07:45:18.154Z,162.35
2022-09-04T07:46:18.198Z,162.35
2022-09-04T07:47:18.169Z,162.35
2022-09-04T07:48:18.181Z,162.35
2022-09-04T07:49:18.171Z,162.35
2022-09-04T07:50:18.168Z,162.35
2022-09-04T07:51:18.175Z,162.35
2022-09-04T07:52:18.165Z,162.35
2022-09-04T07:53:18.166Z,162.35
2022-09-04T07:54:22.383Z,162.35
2022-09-04T07:55:18.166Z,162.35
2022-09-04T07:56:18.174Z,162.35
2022-09-04T07:57:18.181Z,162.35
2022-09-04T07:58:18.196Z,162.35
2022-09-04T07:59:18.171Z,159.53
2022-09-04T08:00:18.209Z,152.47
2022-09-04T08:01:18.248Z,135.53
2022-09-04T08:02:18.187Z,193.41
2022-09-04T08:03:18.184Z,162.35
2022-09-04T08:04:18.185Z,168
2022-09-04T08:05:18.263Z,168
2022-09-04T08:06:18.190Z,168
2022-09-04T08:07:18.193Z,168
2022-09-04T08:08:18.246Z,168
2022-09-04T08:09:18.194Z,168
2022-09-04T08:10:18.191Z,168
2022-09-04T08:11:18.187Z,168
2022-09-04T08:12:18.194Z,168
2022-09-04T08:13:18.186Z,168
2022-09-04T08:14:18.194Z,168
2022-09-04T08:15:18.200Z,168
2022-09-04T08:16:18.280Z,168
2022-09-04T08:17:18.202Z,168
2022-09-04T08:18:18.210Z,168
2022-09-04T08:19:18.196Z,168
2022-09-04T08:20:18.283Z,168
2022-09-04T08:21:18.190Z,168
2022-09-04T08:22:18.200Z,168
2022-09-04T08:23:18.200Z,168
2022-09-04T08:24:18.202Z,168
2022-09-04T08:25:18.205Z,168
2022-09-04T08:26:18.210Z,182.12
2022-09-04T08:27:18.210Z,159.53
2022-09-04T08:28:18.239Z,162.35
2022-09-04T08:29:18.209Z,162.35
2022-09-04T08:30:18.235Z,162.35
2022-09-04T08:31:18.267Z,162.35
2022-09-04T08:32:18.219Z,206.12
2022-09-04T08:33:18.220Z,231.53
2022-09-04T08:34:18.221Z,238.59
2022-09-04T08:35:18.221Z,220.24
2022-09-04T08:36:18.218Z,232.94
2022-09-04T08:37:18.485Z,218.82
2022-09-04T08:38:18.257Z,218.82
2022-09-04T08:39:18.223Z,218.82
2022-09-04T08:40:18.240Z,218.82
2022-09-04T08:41:18.224Z,227.29
2022-09-04T08:42:18.223Z,238.59
2022-09-04T08:43:18.226Z,238.59
2022-09-04T08:44:18.226Z,193.41
2022-09-04T08:45:18.232Z,156.71
2022-09-04T08:46:18.277Z,160.94
2022-09-04T08:47:18.237Z,168
2022-09-04T08:48:18.288Z,235.76
2022-09-04T08:49:18.235Z,231.53
2022-09-04T08:50:18.227Z,247.06
2022-09-04T08:51:18.233Z,234.35
2022-09-04T08:52:18.233Z,244.24
2022-09-04T08:53:18.233Z,262.59
2022-09-04T08:54:18.237Z,237.18
2022-09-04T08:55:18.229Z,278.12
2022-09-04T08:56:18.241Z,258.35
2022-09-04T08:57:18.230Z,237.18
2022-09-04T08:58:18.250Z,237.18
2022-09-04T08:59:18.232Z,232.94
2022-09-04T09:00:18.246Z,313.41
2022-09-04T09:01:18.339Z,265.41
2022-09-04T09:02:18.251Z,265.41
2022-09-04T09:03:18.243Z,265.41
2022-09-04T09:04:18.257Z,208.94
2022-09-04T09:05:18.244Z,235.76
2022-09-04T09:06:18.254Z,235.76
2022-09-04T09:07:18.246Z,235.76
2022-09-04T09:08:18.326Z,235.76
2022-09-04T09:09:18.252Z,225.88
2022-09-04T09:10:18.253Z,245.65
2022-09-04T09:11:18.244Z,237.18
2022-09-04T09:12:18.259Z,264
2022-09-04T09:13:18.255Z,256.94
2022-09-04T09:14:18.261Z,254.12
2022-09-04T09:15:18.253Z,240
2022-09-04T09:16:18.285Z,220.24
2022-09-04T09:17:20.399Z,206.12
2022-09-04T09:18:18.291Z,206.12
2022-09-04T09:19:18.253Z,96
2022-09-04T09:20:19.992Z,324.71
2022-09-04T09:21:18.257Z,312
2022-09-04T09:22:18.258Z,302.12
2022-09-04T09:23:18.686Z,286.59
2022-09-04T09:24:18.266Z,296.47
2022-09-04T09:25:18.259Z,290.82
2022-09-04T09:26:18.261Z,265.41
2022-09-04T09:27:18.265Z,262.59
2022-09-04T09:28:18.279Z,196.24
2022-09-04T09:29:18.270Z,268.24
2022-09-04T09:30:18.264Z,289.41
2022-09-04T09:31:18.365Z,295.06
2022-09-04T09:32:18.279Z,234.35
2022-09-04T09:33:18.329Z,207.53
2022-09-04T09:34:18.268Z,289.41
2022-09-04T09:35:18.274Z,297.88
2022-09-04T09:36:18.278Z,309.18
2022-09-04T09:37:18.275Z,282.35
2022-09-04T09:38:18.275Z,299.29
2022-09-04T09:39:18.278Z,299.29
2022-09-04T09:40:18.284Z,256.94
2022-09-04T09:41:18.281Z,276.71
2022-09-04T09:42:18.282Z,276.71
2022-09-04T09:43:18.282Z,344.47
2022-09-04T09:44:18.282Z,307.76
2022-09-04T09:45:18.287Z,293.65
2022-09-04T09:46:18.324Z,259.76
2022-09-04T09:47:18.281Z,269.65
2022-09-04T09:48:18.285Z,310.59
2022-09-04T09:49:18.281Z,259.76
2022-09-04T09:50:18.287Z,292.24
2022-09-04T09:51:18.284Z,303.53
2022-09-04T09:52:18.289Z,248.47
2022-09-04T09:53:18.377Z,295.06
2022-09-04T09:54:18.285Z,306.35
2022-09-04T09:55:18.286Z,300.71
2022-09-04T09:56:18.280Z,289.41
2022-09-04T09:57:18.284Z,309.18
2022-09-04T09:58:18.297Z,292.24
2022-09-04T09:59:18.280Z,354.35
2022-09-04T10:00:18.300Z,252.71
2022-09-04T10:01:18.346Z,265.41
2022-09-04T10:02:18.333Z,297.88
2022-09-04T10:03:18.290Z,300.71
2022-09-04T10:04:18.317Z,232.94
2022-09-04T10:05:18.296Z,268.24
2022-09-04T10:06:18.286Z,258.35
2022-09-04T10:07:18.299Z,184.94
2022-09-04T10:08:19.178Z,204.71
2022-09-04T10:09:18.298Z,169.41
2022-09-04T10:10:18.304Z,297.88
2022-09-04T10:11:18.293Z,221.65
2022-09-04T10:12:18.301Z,295.06
2022-09-04T10:13:18.382Z,289.41
2022-09-04T10:14:20.254Z,302.12
2022-09-04T10:15:18.299Z,289.41
2022-09-04T10:16:18.328Z,302.12
2022-09-04T10:17:18.305Z,256.94
2022-09-04T10:18:18.299Z,173.65
2022-09-04T10:19:18.300Z,183.53
2022-09-04T10:20:18.299Z,176.47
2022-09-04T10:21:18.300Z,206.12
2022-09-04T10:22:18.296Z,165.18
2022-09-04T10:23:18.333Z,151.06
2022-09-04T10:24:18.299Z,196.24
2022-09-04T10:25:18.298Z,234.35
2022-09-04T10:26:18.303Z,272.47
2022-09-04T10:27:18.302Z,275.29
2022-09-04T10:28:18.305Z,254.12
2022-09-04T10:29:18.299Z,264
2022-09-04T10:30:18.304Z,248.47
2022-09-04T10:31:18.305Z,230.12
2022-09-04T10:32:18.303Z,326.12
2022-09-04T10:33:18.303Z,276.71
2022-09-04T10:34:18.308Z,203.29
2022-09-04T10:35:18.309Z,264
2022-09-04T10:36:18.313Z,238.59
2022-09-04T10:37:18.304Z,238.59
2022-09-04T10:38:18.305Z,238.59
2022-09-04T10:39:18.364Z,238.59
2022-09-04T10:40:18.297Z,295.06
2022-09-04T10:41:18.304Z,288
2022-09-04T10:42:18.300Z,251.29
2022-09-04T10:43:18.356Z,225.88
2022-09-04T10:44:18.323Z,225.88
2022-09-04T10:45:18.322Z,276.71
2022-09-04T10:46:23.271Z,304.94
2022-09-04T10:47:18.319Z,207.53
2022-09-04T10:48:18.320Z,204.71
2022-09-04T10:49:18.324Z,255.53
2022-09-04T10:50:18.320Z,290.82
2022-09-04T10:51:18.320Z,231.53
2022-09-04T10:52:18.320Z,272.47
2022-09-04T10:53:18.330Z,297.88
2022-09-04T10:54:18.332Z,319.06
2022-09-04T10:55:18.327Z,306.35
2022-09-04T10:56:18.337Z,214.59
2022-09-04T10:57:18.340Z,218.82
2022-09-04T10:58:18.337Z,208.94
2022-09-04T10:59:18.338Z,245.65
2022-09-04T11:00:18.333Z,86.12
2022-09-04T11:01:18.393Z,86.12
2022-09-04T11:02:18.435Z,221.65
2022-09-04T11:03:18.447Z,213.18
2022-09-04T11:04:18.337Z,248.47
2022-09-04T11:05:18.337Z,271.06
2022-09-04T11:06:18.347Z,278.12
2022-09-04T11:07:18.346Z,269.65
2022-09-04T11:08:18.390Z,223.06
2022-09-04T11:09:18.357Z,186.35
2022-09-04T11:10:18.346Z,208.94
2022-09-04T11:11:18.343Z,204.71
2022-09-04T11:12:18.344Z,223.06
2022-09-04T11:13:18.404Z,251.29
2022-09-04T11:14:18.352Z,223.06
2022-09-04T11:15:18.354Z,220.24
2022-09-04T11:16:18.415Z,238.59
2022-09-04T11:17:18.355Z,192
2022-09-04T11:18:18.355Z,124.24
2022-09-04T11:19:18.360Z,83.29
2022-09-04T11:20:18.662Z,132.71
2022-09-04T11:21:18.355Z,132.71
2022-09-04T11:22:18.359Z,190.59
2022-09-04T11:23:18.414Z,232.94
2022-09-04T11:24:18.372Z,240
2022-09-04T11:25:18.371Z,193.41
2022-09-04T11:26:18.368Z,170.82
2022-09-04T11:27:18.371Z,170.82
2022-09-04T11:28:18.368Z,172.24
2022-09-04T11:29:18.376Z,186.35
2022-09-04T11:30:18.376Z,210.35
2022-09-04T11:31:18.400Z,190.59
2022-09-04T11:32:18.376Z,213.18
2022-09-04T11:33:18.444Z,201.88
2022-09-04T11:34:18.377Z,159.53
2022-09-04T11:35:18.375Z,146.82
2022-09-04T11:36:18.390Z,254.12
2022-09-04T11:37:18.386Z,193.41
2022-09-04T11:38:18.387Z,234.35
2022-09-04T11:39:18.389Z,223.06
2022-09-04T11:40:18.390Z,254.12
2022-09-04T11:41:18.407Z,192
2022-09-04T11:42:18.390Z,230.12
2022-09-04T11:43:18.425Z,286.59
2022-09-04T11:44:18.402Z,297.88
2022-09-04T11:45:18.401Z,242.82
2022-09-04T11:46:18.459Z,252.71
2022-09-04T11:47:18.400Z,245.65
2022-09-04T11:48:18.396Z,159.53
2022-09-04T11:49:18.400Z,223.06
2022-09-04T11:50:18.406Z,276.71
2022-09-04T11:51:18.404Z,242.82
2022-09-04T11:52:18.413Z,194.82
2022-09-04T11:53:18.401Z,231.53
2022-09-04T11:54:18.411Z,163.76
2022-09-04T11:55:18.407Z,168
2022-09-04T11:56:18.418Z,172.24
2022-09-04T11:57:18.408Z,162.35
2022-09-04T11:58:18.405Z,170.82
2022-09-04T11:59:18.404Z,142.59
2022-09-04T12:00:18.407Z,177.88
2022-09-04T12:01:18.412Z,148.24
2022-09-04T12:02:18.472Z,148.24
2022-09-04T12:03:18.455Z,162.35
2022-09-04T12:04:18.475Z,163.76
2022-09-04T12:05:18.428Z,163.76
2022-09-04T12:06:18.423Z,146.82
2022-09-04T12:07:18.426Z,112.94
2022-09-04T12:08:18.494Z,136.94
2022-09-04T12:09:18.425Z,145.41
2022-09-04T12:10:18.434Z,186.35
2022-09-04T12:11:18.422Z,216
2022-09-04T12:12:18.424Z,256.94
2022-09-04T12:13:18.429Z,165.18
2022-09-04T12:14:18.429Z,234.35
2022-09-04T12:15:18.427Z,254.12
2022-09-04T12:16:18.506Z,169.41
2022-09-04T12:17:18.434Z,190.59
2022-09-04T12:18:18.436Z,216
2022-09-04T12:19:18.425Z,213.18
2022-09-04T12:20:18.430Z,213.18
2022-09-04T12:21:18.431Z,213.18
2022-09-04T12:22:18.441Z,213.18
2022-09-04T12:23:18.493Z,213.18
2022-09-04T12:24:18.437Z,213.18
2022-09-04T12:25:18.441Z,213.18
2022-09-04T12:26:18.437Z,213.18
2022-09-04T12:27:18.429Z,213.18
2022-09-04T12:28:18.456Z,213.18
2022-09-04T12:29:18.442Z,272.47
2022-09-04T12:30:18.443Z,297.88
2022-09-04T12:31:18.465Z,299.29
2022-09-04T12:32:18.438Z,272.47
2022-09-04T12:33:18.504Z,304.94
2022-09-04T12:34:18.448Z,316.24
2022-09-04T12:35:18.449Z,297.88
2022-09-04T12:36:18.446Z,320.47
2022-09-04T12:37:18.454Z,314.82
2022-09-04T12:38:18.451Z,310.59
2022-09-04T12:39:18.458Z,327.53
2022-09-04T12:40:18.440Z,312
2022-09-04T12:41:18.462Z,312